createdAt,value
2019-04-27T00:01:50.264Z,93185.31
2019-04-27T00:04:40.782Z,93193.45
2019-04-27T00:07:30.383Z,93193.58
2019-04-27T00:10:25.250Z,93200.19
2019-04-27T00:12:57.294Z,93201.38
2019-04-27T00:15:36.629Z,93204.27
2019-04-27T00:18:23.317Z,93207.20
2019-04-27T00:21:00.705Z,93214.34
2019-04-27T00:23:33.980Z,93205.62
2019-04-27T00:26:07.404Z,93213.05
2019-04-27T00:28:40.284Z,93207.03
2019-04-27T00:31:13.425Z,93205.09
2019-04-27T00:33:46.924Z,93207.77
2019-04-27T00:36:23.182Z,93211.13
2019-04-27T00:38:56.406Z,93212.43
2019-04-27T00:41:29.445Z,93218.19
2019-04-27T00:44:03.438Z,93216.21
2019-04-27T00:46:37.065Z,93220.84
2019-04-27T00:49:10.027Z,93225.51
2019-04-27T00:51:43.460Z,93228.76
2019-04-27T00:54:16.628Z,93233.26
2019-04-27T00:56:54.306Z,93230.89
2019-04-27T00:59:27.287Z,93231.75
2019-04-27T01:02:03.768Z,93233.65
2019-04-27T01:04:37.468Z,93235.32
2019-04-27T01:07:11.707Z,93230.61
2019-04-27T01:09:44.908Z,93227.69
2019-04-27T01:12:19.507Z,93229.05
2019-04-27T01:14:53.514Z,93236.11
2019-04-27T01:17:28.839Z,93233.28
2019-04-27T01:20:01.738Z,93237.02
2019-04-27T01:22:35.188Z,93239.61
2019-04-27T01:25:08.776Z,93235.57
2019-04-27T01:27:46.550Z,93240.41
2019-04-27T01:30:24.028Z,93241.03
2019-04-27T01:32:57.229Z,93246.03
2019-04-27T01:35:30.268Z,93252.01
2019-04-27T01:38:03.206Z,93245.91
2019-04-27T01:40:36.209Z,93247.98
2019-04-27T01:43:09.209Z,93246.00
2019-04-27T01:45:42.370Z,93248.78
2019-04-27T01:48:23.714Z,93245.94
2019-04-27T01:50:50.669Z,93253.69
2019-04-27T01:53:23.610Z,93250.41
2019-04-27T01:55:56.510Z,93260.02
2019-04-27T01:58:29.490Z,93259.51
2019-04-27T02:01:23.976Z,93263.34
2019-04-27T02:04:14.358Z,93270.30
2019-04-27T02:06:49.131Z,93273.09
2019-04-27T02:09:22.210Z,93280.41
2019-04-27T02:11:55.613Z,93279.80
2019-04-27T02:14:28.857Z,93286.38
2019-04-27T02:17:02.470Z,93290.27
2019-04-27T02:19:35.292Z,93291.04
2019-04-27T02:22:08.682Z,93297.50
2019-04-27T02:24:42.189Z,93289.11
2019-04-27T02:27:16.710Z,93288.23
2019-04-27T02:29:59.212Z,93285.05
2019-04-27T02:32:34.230Z,93273.66
2019-04-27T02:35:09.364Z,93278.59
2019-04-27T02:37:43.031Z,93271.78
2019-04-27T02:40:15.891Z,93271.09
2019-04-27T02:42:54.253Z,93276.64
2019-04-27T02:45:25.151Z,93283.26
2019-04-27T02:47:59.853Z,93288.16
2019-04-27T02:50:33.052Z,93285.97
2019-04-27T02:53:06.031Z,93283.27
2019-04-27T02:55:39.783Z,93276.70
2019-04-27T02:58:13.262Z,93275.70
2019-04-27T03:00:46.291Z,93272.45
2019-04-27T03:03:20.358Z,93277.41
2019-04-27T03:05:53.456Z,93278.56
2019-04-27T03:08:26.652Z,93270.53
2019-04-27T03:11:01.174Z,93269.51
2019-04-27T03:13:52.100Z,93274.53
2019-04-27T03:16:29.648Z,93280.06
2019-04-27T03:19:18.098Z,93282.75
2019-04-27T03:21:59.310Z,93286.19
2019-04-27T03:24:49.928Z,93278.25
2019-04-27T03:27:24.891Z,93280.36
2019-04-27T03:29:59.694Z,93279.28
2019-04-27T03:32:32.936Z,93283.45
2019-04-27T03:35:06.171Z,93280.22
2019-04-27T03:37:40.365Z,93284.32
2019-04-27T03:40:13.992Z,93283.27
2019-04-27T03:42:50.134Z,93287.09
2019-04-27T03:45:23.234Z,93287.28
2019-04-27T03:47:56.150Z,93284.59
2019-04-27T03:50:36.930Z,93287.05
2019-04-27T03:53:11.451Z,93284.94
2019-04-27T03:55:45.910Z,93285.53
2019-04-27T03:58:26.311Z,93295.81
2019-04-27T04:01:00.107Z,93292.94
2019-04-27T04:03:33.591Z,93295.53
2019-04-27T04:06:06.489Z,93291.80
2019-04-27T04:08:39.865Z,93298.57
2019-04-27T04:11:19.815Z,93299.50
2019-04-27T04:14:00.360Z,93300.87
2019-04-27T04:16:35.493Z,93301.98
2019-04-27T04:19:10.350Z,93304.94
2019-04-27T04:21:43.349Z,93305.50
2019-04-27T04:24:19.702Z,93311.80
2019-04-27T04:26:51.467Z,93304.72
2019-04-27T04:29:24.329Z,93302.77
2019-04-27T04:32:00.166Z,93306.79
2019-04-27T04:34:32.498Z,93310.20
2019-04-27T04:37:05.297Z,93311.84
2019-04-27T04:39:40.395Z,93307.04
2019-04-27T04:42:30.153Z,93304.91
2019-04-27T04:45:10.767Z,93309.44
2019-04-27T04:47:45.604Z,93311.02
2019-04-27T04:50:20.271Z,93316.29
2019-04-27T04:52:52.989Z,93322.63
2019-04-27T04:55:26.030Z,93320.95
2019-04-27T04:57:59.154Z,93319.06
2019-04-27T05:00:32.303Z,93321.18
2019-04-27T05:03:05.310Z,93330.55
2019-04-27T05:05:39.496Z,93339.22
2019-04-27T05:08:13.749Z,93335.58
2019-04-27T05:10:47.232Z,93330.64
2019-04-27T05:13:20.368Z,93331.42
2019-04-27T05:15:53.269Z,93331.16
2019-04-27T05:18:26.177Z,93332.13
2019-04-27T05:21:09.446Z,93328.53
2019-04-27T05:23:42.249Z,93317.00
2019-04-27T05:26:15.508Z,93327.81
2019-04-27T05:28:49.190Z,93324.55
2019-04-27T05:31:22.729Z,93328.77
2019-04-27T05:33:55.769Z,93328.28
2019-04-27T05:36:29.635Z,93336.78
2019-04-27T05:39:02.936Z,93335.76
2019-04-27T05:41:37.489Z,93339.31
2019-04-27T05:44:13.019Z,93339.53
2019-04-27T05:46:58.640Z,93333.59
2019-04-27T05:49:36.383Z,93335.58
2019-04-27T05:54:48.886Z,93340.66
2019-04-27T05:57:21.990Z,93335.42
2019-04-27T05:59:55.051Z,93332.19
2019-04-27T06:02:30.197Z,93328.58
2019-04-27T06:05:03.928Z,93334.42
2019-04-27T06:07:36.888Z,93333.45
2019-04-27T06:10:09.989Z,93337.09
2019-04-27T06:12:42.868Z,93340.56
2019-04-27T06:15:15.841Z,93341.47
2019-04-27T06:17:48.829Z,93336.41
2019-04-27T06:20:21.694Z,93334.02
2019-04-27T06:22:54.616Z,93335.88
2019-04-27T06:25:30.340Z,93336.51
2019-04-27T06:28:02.250Z,93340.44
2019-04-27T06:30:35.202Z,93341.02
2019-04-27T06:33:09.405Z,93333.38
2019-04-27T06:35:42.761Z,93336.52
2019-04-27T06:38:16.268Z,93336.72
2019-04-27T06:40:49.149Z,93348.06
2019-04-27T06:43:22.169Z,93342.29
2019-04-27T06:45:55.127Z,93338.77
2019-04-27T06:48:29.642Z,93332.41
2019-04-27T06:51:05.557Z,93337.98
2019-04-27T06:53:39.307Z,93329.14
2019-04-27T06:56:12.408Z,93333.10
2019-04-27T06:58:46.258Z,93336.67
2019-04-27T07:01:20.898Z,93331.02
2019-04-27T07:03:54.168Z,93331.95
2019-04-27T07:06:28.595Z,93331.35
2019-04-27T07:09:01.998Z,93331.30
2019-04-27T07:11:34.888Z,93333.34
2019-04-27T07:14:11.236Z,93332.91
2019-04-27T07:16:42.468Z,93334.34
2019-04-27T07:19:15.807Z,93332.05
2019-04-27T07:21:49.798Z,93336.91
2019-04-27T07:24:23.533Z,93337.88
2019-04-27T07:26:56.995Z,93334.81
2019-04-27T07:29:29.955Z,93332.95
2019-04-27T07:32:02.804Z,93333.94
2019-04-27T07:34:36.016Z,93334.84
2019-04-27T07:37:09.352Z,93341.27
2019-04-27T07:39:43.667Z,93346.41
2019-04-27T07:42:16.983Z,93335.88
2019-04-27T07:44:52.070Z,93339.98
2019-04-27T07:47:26.908Z,93335.98
2019-04-27T07:50:01.480Z,93333.04
2019-04-27T07:52:37.868Z,93328.19
2019-04-27T07:55:09.848Z,93320.57
2019-04-27T07:57:42.707Z,93323.64
2019-04-27T08:00:16.600Z,93330.38
2019-04-27T08:02:49.568Z,93331.48
2019-04-27T08:05:22.617Z,93335.58
2019-04-27T08:07:55.549Z,93332.37
2019-04-27T08:10:29.211Z,93335.70
2019-04-27T08:13:02.248Z,93327.38
2019-04-27T08:15:35.131Z,93338.41
2019-04-27T08:18:08.995Z,93328.63
2019-04-27T08:20:42.067Z,93330.95
2019-04-27T08:23:15.268Z,93330.95
2019-04-27T08:25:48.962Z,93333.49
2019-04-27T08:28:28.773Z,93332.23
2019-04-27T08:31:11.047Z,93331.87
2019-04-27T08:33:44.548Z,93332.11
2019-04-27T08:36:19.002Z,93328.23
2019-04-27T08:38:52.087Z,93328.39
2019-04-27T08:41:25.488Z,93319.09
2019-04-27T08:43:58.777Z,93324.02
2019-04-27T08:46:31.934Z,93323.02
2019-04-27T08:49:04.795Z,93326.83
2019-04-27T08:51:39.214Z,93328.55
2019-04-27T08:54:12.468Z,93323.98
2019-04-27T08:56:45.347Z,93326.68
2019-04-27T08:59:19.427Z,93322.09
2019-04-27T09:01:53.208Z,93329.52
2019-04-27T09:04:26.227Z,93328.25
2019-04-27T09:07:03.800Z,93328.66
2019-04-27T09:09:39.671Z,93325.17
2019-04-27T09:12:30.667Z,93315.93
2019-04-27T09:15:14.228Z,93311.48
2019-04-27T09:17:54.908Z,93312.77
2019-04-27T09:20:39.095Z,93315.98
2019-04-27T09:23:12.248Z,93307.33
2019-04-27T09:25:45.628Z,93314.40
2019-04-27T09:28:21.575Z,93315.03
2019-04-27T09:30:54.389Z,93311.22
2019-04-27T09:33:27.533Z,93310.31
2019-04-27T09:36:00.895Z,93310.44
2019-04-27T09:38:35.660Z,93313.42
2019-04-27T09:41:08.508Z,93309.70
2019-04-27T09:43:41.388Z,93311.09
2019-04-27T09:46:15.736Z,93312.48
2019-04-27T09:48:49.187Z,93312.63
2019-04-27T09:51:22.227Z,93310.54
2019-04-27T09:53:56.319Z,93306.00
2019-04-27T09:56:29.448Z,93304.53
2019-04-27T09:59:03.123Z,93305.52
2019-04-27T10:01:36.168Z,93297.83
2019-04-27T10:04:09.347Z,93294.59
2019-04-27T10:06:42.868Z,93292.81
2019-04-27T10:09:15.993Z,93290.84
2019-04-27T10:11:49.267Z,93296.72
2019-04-27T10:14:22.467Z,93287.62
2019-04-27T10:16:55.832Z,93294.77
2019-04-27T10:19:32.884Z,93286.03
2019-04-27T10:22:05.683Z,93275.17
2019-04-27T10:24:39.058Z,93269.51
2019-04-27T10:27:11.968Z,93263.27
2019-04-27T10:29:46.739Z,93259.91
2019-04-27T10:32:20.378Z,93265.46
2019-04-27T10:34:54.255Z,93266.81
2019-04-27T10:37:27.272Z,93265.47
2019-04-27T10:40:00.105Z,93265.83
2019-04-27T10:42:33.236Z,93263.26
2019-04-27T10:45:06.537Z,93259.59
2019-04-27T10:47:39.592Z,93256.48
2019-04-27T10:50:12.688Z,93260.12
2019-04-27T10:52:53.205Z,93259.60
2019-04-27T10:55:20.428Z,93271.05
2019-04-27T10:57:53.288Z,93256.75
2019-04-27T11:00:37.361Z,93260.90
2019-04-27T11:03:10.430Z,93256.66
2019-04-27T11:05:43.245Z,93254.77
2019-04-27T11:08:16.766Z,93248.16
2019-04-27T11:10:50.168Z,93253.59
2019-04-27T11:13:23.396Z,93252.09
2019-04-27T11:15:56.508Z,93253.22
2019-04-27T11:18:29.787Z,93257.95
2019-04-27T11:21:03.162Z,93254.77
2019-04-27T11:23:36.908Z,93252.55
2019-04-27T11:26:09.776Z,93260.84
2019-04-27T11:28:42.850Z,93259.84
2019-04-27T11:31:17.271Z,93258.31
2019-04-27T11:33:50.448Z,93245.67
2019-04-27T11:36:23.275Z,93247.16
2019-04-27T11:39:04.012Z,93245.19
2019-04-27T11:41:38.707Z,93238.36
2019-04-27T11:44:11.768Z,93232.34
2019-04-27T11:46:45.517Z,93232.34
2019-04-27T11:49:20.188Z,93233.42
2019-04-27T11:51:53.316Z,93225.91
2019-04-27T11:54:27.586Z,93217.56
2019-04-27T11:57:01.131Z,93219.89
2019-04-27T11:59:34.133Z,93223.03
2019-04-27T12:02:07.608Z,93219.06
2019-04-27T12:04:40.491Z,93219.36
2019-04-27T12:07:13.528Z,93223.03
2019-04-27T12:09:48.048Z,93223.33
2019-04-27T12:12:21.873Z,93235.44
2019-04-27T12:14:56.228Z,93233.75
2019-04-27T12:17:29.316Z,93237.64
2019-04-27T12:20:02.466Z,93239.81
2019-04-27T12:22:35.588Z,93237.38
2019-04-27T12:25:08.633Z,93240.91
2019-04-27T12:27:59.347Z,93238.50
2019-04-27T12:30:33.868Z,93248.16
2019-04-27T12:33:06.728Z,93242.30
2019-04-27T12:35:39.672Z,93242.41
2019-04-27T12:38:12.809Z,93238.20
2019-04-27T12:40:46.582Z,93231.88
2019-04-27T12:43:19.928Z,93235.64
2019-04-27T12:45:52.950Z,93222.56
2019-04-27T12:48:26.489Z,93222.27
2019-04-27T12:50:59.229Z,93229.27
2019-04-27T12:53:47.621Z,93227.78
2019-04-27T12:56:11.236Z,93222.39
2019-04-27T12:58:47.500Z,93219.67
2019-04-27T13:01:22.018Z,93214.50
2019-04-27T13:03:58.888Z,93216.92
2019-04-27T13:06:30.787Z,93219.56
2019-04-27T13:09:03.724Z,93214.92
2019-04-27T13:11:36.720Z,93216.41
2019-04-27T13:14:09.587Z,93205.22
2019-04-27T13:16:42.993Z,93212.02
2019-04-27T13:19:16.236Z,93196.84
2019-04-27T13:21:49.158Z,93198.06
2019-04-27T13:24:22.047Z,93188.45
2019-04-27T13:26:55.939Z,93190.12
2019-04-27T13:29:29.389Z,93182.65
2019-04-27T13:32:02.624Z,93184.75
2019-04-27T13:34:36.379Z,93180.68
2019-04-27T13:37:27.827Z,93184.08
2019-04-27T13:40:07.073Z,93189.01
2019-04-27T13:42:39.938Z,93185.31
2019-04-27T13:45:16.489Z,93182.41
2019-04-27T13:47:56.118Z,93185.34
2019-04-27T13:50:33.507Z,93184.94
2019-04-27T13:53:08.380Z,93180.22
2019-04-27T13:55:41.188Z,93182.00
2019-04-27T13:58:14.369Z,93181.56
2019-04-27T14:00:47.316Z,93181.08
2019-04-27T14:03:21.054Z,93184.29
2019-04-27T14:05:56.744Z,93187.16
2019-04-27T14:08:29.558Z,93191.41
2019-04-27T14:11:03.044Z,93184.25
2019-04-27T14:13:36.071Z,93193.94
2019-04-27T14:16:09.731Z,93183.27
2019-04-27T14:18:43.051Z,93186.48
2019-04-27T14:21:16.028Z,93187.18
2019-04-27T14:23:49.048Z,93184.73
2019-04-27T14:26:22.647Z,93192.18
2019-04-27T14:28:55.668Z,93191.16
2019-04-27T14:31:29.205Z,93193.48
2019-04-27T14:34:02.147Z,93188.70
2019-04-27T14:36:35.421Z,93191.77
2019-04-27T14:39:09.888Z,93190.56
2019-04-27T14:42:31.628Z,93184.48
2019-04-27T14:45:04.588Z,93191.45
2019-04-27T14:47:39.658Z,93191.52
2019-04-27T14:50:12.409Z,93190.02
2019-04-27T14:52:45.388Z,93198.74
2019-04-27T14:55:18.647Z,93205.62
2019-04-27T14:57:52.216Z,93197.78
2019-04-27T15:00:25.067Z,93201.36
2019-04-27T15:02:59.138Z,93201.91
2019-04-27T15:05:33.827Z,93196.86
2019-04-27T15:08:09.749Z,93196.88
2019-04-27T15:10:41.648Z,93199.63
2019-04-27T15:13:14.547Z,93203.60
2019-04-27T15:15:47.703Z,93193.88
2019-04-27T15:18:20.648Z,93197.77
2019-04-27T15:20:54.011Z,93197.98
2019-04-27T15:23:30.809Z,93203.83
2019-04-27T15:26:01.687Z,93204.52
2019-04-27T15:28:36.269Z,93208.76
2019-04-27T15:31:29.253Z,93211.55
2019-04-27T15:34:15.876Z,93214.89
2019-04-27T15:36:56.754Z,93210.39
2019-04-27T15:39:33.867Z,93210.12
2019-04-27T15:42:09.834Z,93199.88
2019-04-27T15:44:44.183Z,93205.73
2019-04-27T15:47:20.088Z,93203.20
2019-04-27T15:49:54.548Z,93206.27
2019-04-27T15:52:30.079Z,93201.44
2019-04-27T15:55:02.898Z,93203.94
2019-04-27T15:57:38.130Z,93212.41
2019-04-27T16:00:17.610Z,93203.30
2019-04-27T16:02:49.292Z,93204.83
2019-04-27T16:05:23.463Z,93213.28
2019-04-27T16:07:59.261Z,93213.98
2019-04-27T16:10:36.511Z,93212.63
2019-04-27T16:13:10.022Z,93216.11
2019-04-27T16:15:42.028Z,93215.40
2019-04-27T16:18:15.288Z,93215.35
2019-04-27T16:20:48.554Z,93213.64
2019-04-27T16:23:22.168Z,93210.20
2019-04-27T16:25:55.147Z,93208.42
2019-04-27T16:28:28.968Z,93216.82
2019-04-27T16:31:01.888Z,93214.20
2019-04-27T16:33:34.770Z,93218.56
2019-04-27T16:36:09.705Z,93215.90
2019-04-27T16:38:51.528Z,93219.65
2019-04-27T16:41:24.476Z,93216.14
2019-04-27T16:43:58.146Z,93223.42
2019-04-27T16:46:35.034Z,93219.86
2019-04-27T16:49:13.533Z,93222.44
2019-04-27T16:51:41.707Z,93225.23
2019-04-27T16:56:53.085Z,93221.33
2019-04-27T16:59:40.679Z,93229.65
2019-04-27T17:01:59.228Z,93229.05
2019-04-27T17:04:32.331Z,93226.13
2019-04-27T17:07:05.251Z,93230.38
2019-04-27T17:09:42.164Z,93236.92
2019-04-27T17:12:13.051Z,93236.95
2019-04-27T17:12:41.343Z,93222.25
2019-04-27T17:14:53.932Z,93241.52
2019-04-27T17:17:28.395Z,93245.44
2019-04-27T17:20:04.851Z,93247.68
2019-04-27T17:22:38.835Z,93239.59
2019-04-27T17:25:15.413Z,93239.77
2019-04-27T17:27:49.585Z,93238.98
2019-04-27T17:30:22.442Z,93247.11
2019-04-27T17:33:10.599Z,93244.38
2019-04-27T17:35:39.560Z,93250.52
2019-04-27T17:38:15.711Z,93243.34
2019-04-27T17:40:48.751Z,93251.97
2019-04-27T17:43:21.908Z,93252.36
2019-04-27T17:45:55.646Z,93263.89
2019-04-27T17:48:28.968Z,93265.92
2019-04-27T17:51:03.502Z,93267.78
2019-04-27T17:53:36.469Z,93271.98
2019-04-27T17:56:09.957Z,93275.88
2019-04-27T17:58:42.869Z,93277.55
2019-04-27T18:01:19.126Z,93283.31
2019-04-27T18:03:58.818Z,93287.66
2019-04-27T18:06:29.557Z,93294.79
2019-04-27T18:09:03.437Z,93303.86
2019-04-27T18:11:37.311Z,93300.77
2019-04-27T18:14:14.430Z,93306.30
2019-04-27T18:16:44.401Z,93303.39
2019-04-27T18:19:19.030Z,93312.08
2019-04-27T18:22:02.911Z,93313.95
2019-04-27T18:24:38.039Z,93316.04
2019-04-27T18:27:15.031Z,93322.17
2019-04-27T18:29:48.646Z,93326.28
2019-04-27T18:32:23.501Z,93322.72
2019-04-27T18:34:58.463Z,93329.73
2019-04-27T18:37:32.170Z,93335.03
2019-04-27T18:40:05.051Z,93336.84
2019-04-27T18:42:38.530Z,93337.78
2019-04-27T18:45:11.830Z,93340.39
2019-04-27T18:47:47.991Z,93346.98
2019-04-27T18:50:28.169Z,93342.88
2019-04-27T18:53:16.481Z,93349.73
2019-04-27T18:55:56.804Z,93350.55
2019-04-27T18:58:24.145Z,93348.52
2019-04-27T19:00:58.300Z,93356.86
2019-04-27T19:03:31.816Z,93358.69
2019-04-27T19:06:05.355Z,93354.15
2019-04-27T19:08:38.578Z,93354.65
2019-04-27T19:11:11.737Z,93351.92
2019-04-27T19:13:44.523Z,93353.38
2019-04-27T19:16:18.711Z,93357.63
2019-04-27T19:18:52.657Z,93365.46
2019-04-27T19:21:25.698Z,93369.09
2019-04-27T19:23:58.670Z,93364.66
2019-04-27T19:26:33.090Z,93369.11
2019-04-27T19:29:13.788Z,93368.38
2019-04-27T19:31:58.650Z,93371.70
2019-04-27T19:34:35.032Z,93373.28
2019-04-27T19:37:08.308Z,93371.83
2019-04-27T19:39:41.368Z,93374.64
2019-04-27T19:42:14.337Z,93372.33
2019-04-27T19:44:48.102Z,93373.05
2019-04-27T19:47:21.096Z,93376.88
2019-04-27T19:49:54.110Z,93364.65
2019-04-27T19:52:28.249Z,93361.48
2019-04-27T19:55:01.371Z,93365.45
2019-04-27T19:57:39.219Z,93361.53
2019-04-27T20:00:10.403Z,93359.40
2019-04-27T20:02:43.470Z,93357.02
2019-04-27T20:05:18.630Z,93363.14
2019-04-27T20:07:51.330Z,93364.48
2019-04-27T20:10:24.471Z,93370.56
2019-04-27T20:12:57.499Z,93367.41
2019-04-27T20:15:30.550Z,93368.94
2019-04-27T20:18:03.557Z,93371.08
2019-04-27T20:20:36.658Z,93371.63
2019-04-27T20:23:09.812Z,93380.05
2019-04-27T20:25:43.051Z,93376.05
2019-04-27T20:28:16.251Z,93371.05
2019-04-27T20:30:49.370Z,93368.18
2019-04-27T20:33:22.418Z,93370.00
2019-04-27T20:35:56.138Z,93359.95
2019-04-27T20:38:31.599Z,93361.27
2019-04-27T20:41:04.332Z,93355.97
2019-04-27T20:43:37.280Z,93354.91
2019-04-27T20:46:11.739Z,93358.61
2019-04-27T20:48:45.754Z,93362.81
2019-04-27T20:51:21.270Z,93359.67
2019-04-27T20:53:56.022Z,93366.00
2019-04-27T20:56:28.978Z,93364.66
2019-04-27T20:59:01.889Z,93366.55
2019-04-27T21:01:34.950Z,93373.14
2019-04-27T21:04:08.311Z,93371.97
2019-04-27T21:06:42.910Z,93371.50
2019-04-27T21:09:17.933Z,93365.41
2019-04-27T21:11:51.050Z,93370.44
2019-04-27T21:14:23.910Z,93360.70
2019-04-27T21:16:56.891Z,93360.88
2019-04-27T21:19:31.223Z,93126.77
2019-04-27T21:22:04.571Z,93358.80
2019-04-27T21:24:37.811Z,93362.73
2019-04-27T21:27:13.004Z,93356.65
2019-04-27T21:29:46.811Z,93359.83
2019-04-27T21:32:19.831Z,93364.36
2019-04-27T21:34:52.730Z,93367.00
2019-04-27T21:37:25.754Z,93362.47
2019-04-27T21:40:18.235Z,93363.30
2019-04-27T21:42:51.344Z,93359.56
2019-04-27T21:45:24.888Z,93354.55
2019-04-27T21:47:57.928Z,93361.72
2019-04-27T21:50:31.638Z,93366.37
2019-04-27T21:53:06.630Z,93358.72
2019-04-27T21:55:42.075Z,93362.07
2019-04-27T21:58:28.158Z,93359.30
2019-04-27T22:01:06.890Z,93361.39
2019-04-27T22:03:40.089Z,93363.59
2019-04-27T22:06:13.130Z,93360.69
2019-04-27T22:08:46.029Z,93355.42
2019-04-27T22:11:21.762Z,93359.55
2019-04-27T22:13:54.469Z,93353.75
2019-04-27T22:16:27.430Z,93346.69
2019-04-27T22:19:01.970Z,93355.67
2019-04-27T22:21:35.031Z,93355.67
2019-04-27T22:24:18.549Z,93351.97
2019-04-27T22:26:52.248Z,93354.09
2019-04-27T22:29:25.208Z,93351.14
2019-04-27T22:31:58.356Z,93351.18
2019-04-27T22:34:31.358Z,93345.20
2019-04-27T22:37:04.388Z,93340.34
2019-04-27T22:39:55.255Z,93351.33
2019-04-27T22:42:45.867Z,93345.56
2019-04-27T22:45:20.307Z,93343.66
2019-04-27T22:47:53.272Z,93351.59
2019-04-27T22:50:26.588Z,93341.54
2019-04-27T22:52:59.668Z,93350.32
2019-04-27T22:55:32.668Z,93347.90
2019-04-27T22:58:13.369Z,93354.56
2019-04-27T23:00:57.014Z,93353.38
2019-04-27T23:03:31.590Z,93348.45
2019-04-27T23:06:04.428Z,93353.38
2019-04-27T23:08:37.528Z,93345.86
2019-04-27T23:11:11.568Z,93343.00
2019-04-27T23:13:44.569Z,93336.42
2019-04-27T23:16:19.196Z,93344.39
2019-04-27T23:18:52.256Z,93347.30
2019-04-27T23:21:25.228Z,93348.75
2019-04-27T23:23:58.308Z,93341.69
2019-04-27T23:26:31.601Z,93342.03
2019-04-27T23:29:12.963Z,93337.06
2019-04-27T23:31:59.310Z,93332.72
2019-04-27T23:34:32.187Z,93332.73
2019-04-27T23:37:05.358Z,93333.98
2019-04-27T23:39:38.428Z,93341.09
2019-04-27T23:42:11.638Z,93346.77
2019-04-27T23:44:44.788Z,93347.83
2019-04-27T23:47:19.621Z,93351.30
2019-04-27T23:49:53.328Z,93355.23
2019-04-27T23:52:27.749Z,93355.61
2019-04-27T23:55:02.352Z,93358.13
2019-04-27T23:57:35.435Z,93352.63
